Time;durP1;ratioP1;P1;durP2;ratioP2;P2;SDS_P1;SDS_P2;PMS_P1;PMS_P2;Temp;Humidity;BMP_temperature;BMP_pressure;BME280_temperature;BME280_humidity;BME280_pressure;Samples;Min_cycle;Max_cycle;Signal;HPM_P1;HPM_P2
2022/10/19 00:01:19;;;;;;;;;;;14.60;99.90;;;;;;5083635;28;19908;-72
2022/10/19 00:03:47;;;;;;;;;;;14.60;99.90;;;;;;5081834;28;19995;-72
2022/10/19 00:06:18;;;;;;;;;;;14.60;99.90;;;;;;5082180;28;20107;-72
2022/10/19 00:08:44;;;;;;;;;;;14.60;99.90;;;;;;5082356;28;20137;-72
2022/10/19 00:11:10;;;;;;;;;;;14.50;99.90;;;;;;5082493;28;19917;-72
2022/10/19 00:13:36;;;;;;;;;;;14.50;99.90;;;;;;5083389;28;20222;-72
2022/10/19 00:16:07;;;;;;;;;;;14.50;99.90;;;;;;5078739;28;19995;-72
2022/10/19 00:18:32;;;;;;;;;;;14.40;99.90;;;;;;5053279;28;19950;-72
2022/10/19 00:21:05;;;;;;;;;;;14.40;99.90;;;;;;5081205;28;20198;-71
2022/10/19 00:23:31;;;;;;;;;;;14.40;99.90;;;;;;5082030;28;20162;-71
2022/10/19 00:25:57;;;;;;;;;;;14.40;99.90;;;;;;5083070;28;19912;-71
2022/10/19 00:28:22;;;;;;;;;;;14.30;99.90;;;;;;5082097;28;19944;-72
2022/10/19 00:30:48;;;;;;;;;;;14.20;99.90;;;;;;5082846;28;20092;-71
2022/10/19 00:33:19;;;;;;;;;;;14.20;99.90;;;;;;5082909;28;19948;-72
2022/10/19 00:35:47;;;;;;;;;;;14.10;99.90;;;;;;5082941;28;19987;-72
2022/10/19 00:38:13;;;;;;;;;;;14.00;99.90;;;;;;5082646;28;19919;-72
2022/10/19 00:40:38;;;;;;;;;;;14.00;99.90;;;;;;5082894;28;19908;-71
2022/10/19 00:43:14;;;;;;;;;;;14.00;99.90;;;;;;5082944;28;19916;-71
2022/10/19 00:45:40;;;;;;;;;;;14.00;99.90;;;;;;5081427;28;20246;-71
2022/10/19 00:48:06;;;;;;;;;;;14.00;99.90;;;;;;5082675;28;19920;-71
2022/10/19 00:50:31;;;;;;;;;;;14.00;99.90;;;;;;5081378;28;20306;-71
2022/10/19 00:52:57;;;;;;;;;;;14.00;99.90;;;;;;5082729;28;20138;-71
2022/10/19 00:55:23;;;;;;;;;;;14.00;99.90;;;;;;5081647;28;19962;-71
2022/10/19 00:57:49;;;;;;;;;;;14.00;99.90;;;;;;5064632;28;19915;-72
2022/10/19 01:00:15;;;;;;;;;;;14.00;99.90;;;;;;5082579;28;19916;-71
2022/10/19 01:02:40;;;;;;;;;;;13.90;99.90;;;;;;5082601;28;19972;-71
2022/10/19 01:05:06;;;;;;;;;;;13.90;99.90;;;;;;5082029;28;19916;-72
2022/10/19 01:07:32;;;;;;;;;;;13.90;99.90;;;;;;5081232;28;19950;-71
2022/10/19 01:09:58;;;;;;;;;;;13.90;99.90;;;;;;5081839;28;20230;-71
2022/10/19 01:12:49;;;;;;;;;;;13.80;99.90;;;;;;5064971;28;20203;-72
2022/10/19 01:15:20;;;;;;;;;;;13.80;99.90;;;;;;5081837;28;20215;-72
2022/10/19 01:17:53;;;;;;;;;;;13.80;99.90;;;;;;5064408;28;19909;-72
2022/10/19 01:20:39;;;;;;;;;;;13.80;99.90;;;;;;5081964;28;19946;-71
2022/10/19 01:23:23;;;;;;;;;;;13.80;99.90;;;;;;5082650;28;20003;-71
2022/10/19 01:26:14;;;;;;;;;;;13.80;99.90;;;;;;5082198;28;20157;-71
2022/10/19 01:29:02;;;;;;;;;;;13.80;99.90;;;;;;5082325;28;19923;-71
2022/10/19 01:31:41;;;;;;;;;;;13.80;99.90;;;;;;5081342;28;19908;-71
2022/10/19 01:34:31;;;;;;;;;;;13.80;99.90;;;;;;5081339;28;19909;-71
2022/10/19 01:37:12;;;;;;;;;;;13.70;99.90;;;;;;5101669;22;21459;-73
2022/10/19 01:39:42;;;;;;;;;;;13.70;99.90;;;;;;5048288;28;19921;-76
2022/10/19 01:42:49;;;;;;;;;;;13.70;99.90;;;;;;5057157;28;20241;-76
2022/10/19 01:45:20;;;;;;;;;;;13.70;99.90;;;;;;5067283;28;19952;-75
2022/10/19 01:47:51;;;;;;;;;;;13.70;99.90;;;;;;5050393;28;19947;-73
2022/10/19 01:50:21;;;;;;;;;;;13.70;99.90;;;;;;5052979;28;19946;-74
2022/10/19 01:52:47;;;;;;;;;;;13.70;99.90;;;;;;5044439;28;19919;-73
2022/10/19 01:55:12;;;;;;;;;;;13.70;99.90;;;;;;5044797;28;20186;-74
2022/10/19 01:57:44;;;;;;;;;;;13.60;99.90;;;;;;5044021;28;20080;-74
2022/10/19 02:00:10;;;;;;;;;;;13.60;99.90;;;;;;5050398;28;19959;-74
2022/10/19 02:02:37;;;;;;;;;;;13.60;99.90;;;;;;5053589;28;19909;-73
2022/10/19 02:05:03;;;;;;;;;;;13.60;99.90;;;;;;5040530;28;20171;-73
2022/10/19 02:07:29;;;;;;;;;;;13.50;99.90;;;;;;5057457;28;19919;-73
2022/10/19 02:09:55;;;;;;;;;;;13.60;99.90;;;;;;5054382;28;19909;-74
2022/10/19 02:12:20;;;;;;;;;;;13.50;99.90;;;;;;5050852;28;19909;-74
2022/10/19 02:14:47;;;;;;;;;;;13.50;99.90;;;;;;5053301;28;19987;-73
2022/10/19 02:17:15;;;;;;;;;;;13.50;99.90;;;;;;5034721;28;19944;-74
2022/10/19 02:19:41;;;;;;;;;;;13.50;99.90;;;;;;5033891;28;19943;-74
2022/10/19 02:22:07;;;;;;;;;;;13.40;99.90;;;;;;5032907;28;19913;-74
2022/10/19 02:24:33;;;;;;;;;;;13.40;99.90;;;;;;5032166;28;20131;-74
2022/10/19 02:26:59;;;;;;;;;;;13.40;99.90;;;;;;5054517;28;19909;-74
2022/10/19 02:29:25;;;;;;;;;;;13.40;99.90;;;;;;5028670;28;20111;-74
2022/10/19 02:31:51;;;;;;;;;;;13.40;99.90;;;;;;5045021;28;19941;-74
2022/10/19 02:34:16;;;;;;;;;;;13.40;99.90;;;;;;5053296;28;19944;-74
2022/10/19 02:36:42;;;;;;;;;;;13.40;99.90;;;;;;5047827;28;19909;-74
2022/10/19 02:39:08;;;;;;;;;;;13.40;99.90;;;;;;5031020;28;19916;-74
2022/10/19 02:41:36;;;;;;;;;;;13.40;99.90;;;;;;5031186;28;19939;-74
2022/10/19 02:44:12;;;;;;;;;;;13.40;99.90;;;;;;5047812;28;20189;-75
2022/10/19 02:46:41;;;;;;;;;;;13.40;99.90;;;;;;5047797;28;19962;-75
2022/10/19 02:49:07;;;;;;;;;;;13.40;99.90;;;;;;5047760;28;20114;-75
2022/10/19 02:51:34;;;;;;;;;;;13.40;99.90;;;;;;5047671;28;19917;-74
2022/10/19 02:54:00;;;;;;;;;;;13.30;99.90;;;;;;5047234;28;19916;-74
2022/10/19 02:56:26;;;;;;;;;;;13.30;99.90;;;;;;5030637;28;19944;-74
2022/10/19 02:58:52;;;;;;;;;;;13.30;99.90;;;;;;5064981;28;20200;-74
2022/10/19 03:01:17;;;;;;;;;;;13.40;99.90;;;;;;5047392;28;19993;-75
2022/10/19 03:03:43;;;;;;;;;;;13.30;99.90;;;;;;5046705;28;19912;-74
2022/10/19 03:06:09;;;;;;;;;;;13.30;99.90;;;;;;5046541;28;19913;-74
2022/10/19 03:08:34;;;;;;;;;;;13.40;99.90;;;;;;5064788;28;19909;-74
2022/10/19 03:11:00;;;;;;;;;;;13.30;99.90;;;;;;5047142;28;19963;-74
2022/10/19 03:13:25;;;;;;;;;;;13.30;99.90;;;;;;5057553;28;19909;-74
2022/10/19 03:15:51;;;;;;;;;;;13.40;99.90;;;;;;5045425;28;19931;-75
2022/10/19 03:18:17;;;;;;;;;;;13.40;99.90;;;;;;5046596;28;20208;-75
2022/10/19 03:20:43;;;;;;;;;;;13.40;99.90;;;;;;5046650;28;19939;-75
2022/10/19 03:23:08;;;;;;;;;;;13.40;99.90;;;;;;5063589;28;19980;-75
2022/10/19 03:25:34;;;;;;;;;;;13.30;99.90;;;;;;5046994;28;19916;-75
2022/10/19 03:28:00;;;;;;;;;;;13.30;99.90;;;;;;5064125;28;19912;-75
2022/10/19 03:30:25;;;;;;;;;;;13.20;99.90;;;;;;5064607;28;19908;-75
2022/10/19 03:32:51;;;;;;;;;;;13.20;99.90;;;;;;5046607;28;19908;-75
2022/10/19 03:35:16;;;;;;;;;;;13.20;99.90;;;;;;5061423;28;19919;-75
2022/10/19 03:37:42;;;;;;;;;;;13.20;99.90;;;;;;5063275;28;19921;-75
2022/10/19 03:40:08;;;;;;;;;;;13.10;99.90;;;;;;5046545;28;19916;-74
2022/10/19 03:42:34;;;;;;;;;;;13.00;99.90;;;;;;5064620;28;19909;-75
2022/10/19 03:44:59;;;;;;;;;;;12.90;99.90;;;;;;5064049;28;19924;-75
2022/10/19 03:47:25;;;;;;;;;;;12.90;99.90;;;;;;5046137;28;19909;-75
2022/10/19 03:49:51;;;;;;;;;;;12.90;99.90;;;;;;5063778;28;19947;-75
2022/10/19 03:52:17;;;;;;;;;;;12.80;99.90;;;;;;5062782;28;19909;-74
2022/10/19 03:54:43;;;;;;;;;;;12.80;99.90;;;;;;5046191;28;19924;-75
2022/10/19 03:57:09;;;;;;;;;;;12.80;99.90;;;;;;5063662;28;19909;-75
2022/10/19 03:59:34;;;;;;;;;;;12.70;99.90;;;;;;5045522;28;19909;-74
2022/10/19 04:02:00;;;;;;;;;;;12.80;99.90;;;;;;5046229;28;19909;-74
2022/10/19 04:04:26;;;;;;;;;;;12.70;99.90;;;;;;5063378;28;19948;-74
2022/10/19 04:06:52;;;;;;;;;;;12.70;99.90;;;;;;5045620;28;19909;-74
2022/10/19 04:09:19;;;;;;;;;;;12.70;99.90;;;;;;5045976;28;20124;-74
2022/10/19 04:11:44;;;;;;;;;;;12.70;99.90;;;;;;5046051;28;19948;-75
2022/10/19 04:14:14;;;;;;;;;;;12.70;99.90;;;;;;5063658;28;19913;-75
2022/10/19 04:16:40;;;;;;;;;;;12.60;99.90;;;;;;5063337;28;19916;-74
2022/10/19 04:19:05;;;;;;;;;;;12.60;99.90;;;;;;5062437;28;19913;-74
2022/10/19 04:21:35;;;;;;;;;;;12.70;99.90;;;;;;5057289;28;19909;-74
2022/10/19 04:24:09;;;;;;;;;;;12.70;99.90;;;;;;5041438;28;20024;-74
2022/10/19 04:26:38;;;;;;;;;;;12.70;99.90;;;;;;5037240;28;19920;-73
2022/10/19 04:29:04;;;;;;;;;;;12.70;99.90;;;;;;5045682;28;20271;-74
2022/10/19 04:31:29;;;;;;;;;;;12.70;99.90;;;;;;5045484;28;19916;-73
2022/10/19 04:33:55;;;;;;;;;;;12.70;99.90;;;;;;5045328;28;19909;-73
2022/10/19 04:36:21;;;;;;;;;;;12.80;99.90;;;;;;5041252;28;20204;-74
2022/10/19 04:38:46;;;;;;;;;;;12.80;99.90;;;;;;5059650;28;19966;-74
2022/10/19 04:41:14;;;;;;;;;;;12.80;99.90;;;;;;5062020;28;19996;-74
2022/10/19 04:43:39;;;;;;;;;;;12.90;99.90;;;;;;5061902;28;19923;-73
2022/10/19 04:46:07;;;;;;;;;;;12.90;99.90;;;;;;5061542;28;19913;-74
2022/10/19 04:48:33;;;;;;;;;;;12.90;99.90;;;;;;5062801;28;19917;-74
2022/10/19 04:50:58;;;;;;;;;;;13.00;99.90;;;;;;5061649;28;19908;-74
2022/10/19 04:53:24;;;;;;;;;;;13.00;99.90;;;;;;5062959;28;19984;-74
2022/10/19 04:55:50;;;;;;;;;;;13.00;99.90;;;;;;5061847;28;19912;-74
2022/10/19 04:58:15;;;;;;;;;;;13.00;99.90;;;;;;5062278;28;19909;-75
2022/10/19 05:00:41;;;;;;;;;;;12.90;99.90;;;;;;5057536;28;20112;-74
2022/10/19 05:03:07;;;;;;;;;;;12.90;99.90;;;;;;5044391;28;19920;-75
2022/10/19 05:05:33;;;;;;;;;;;12.80;99.90;;;;;;5022788;28;19971;-74
2022/10/19 05:07:58;;;;;;;;;;;12.80;99.90;;;;;;5062385;28;19912;-73
2022/10/19 05:10:24;;;;;;;;;;;12.80;99.90;;;;;;5061603;28;19975;-74
2022/10/19 05:12:50;;;;;;;;;;;12.80;99.90;;;;;;5051770;28;20010;-74
2022/10/19 05:15:15;;;;;;;;;;;12.80;99.90;;;;;;5055470;28;19920;-74
2022/10/19 05:17:41;;;;;;;;;;;12.80;99.90;;;;;;5040104;28;19944;-73
2022/10/19 05:20:07;;;;;;;;;;;12.90;99.90;;;;;;5060324;28;20243;-73
2022/10/19 05:22:33;;;;;;;;;;;12.80;99.90;;;;;;5061854;28;19966;-73
2022/10/19 05:24:58;;;;;;;;;;;12.80;99.90;;;;;;5054068;28;19912;-73
2022/10/19 05:27:24;;;;;;;;;;;12.70;99.90;;;;;;5062134;28;19909;-73
2022/10/19 05:29:50;;;;;;;;;;;12.70;99.90;;;;;;5044761;28;19963;-73
2022/10/19 05:32:15;;;;;;;;;;;12.70;99.90;;;;;;5062329;28;19920;-73
2022/10/19 05:34:41;;;;;;;;;;;12.70;99.90;;;;;;5062189;28;19916;-73
2022/10/19 05:37:07;;;;;;;;;;;12.70;99.90;;;;;;5066134;28;19976;-73
2022/10/19 05:39:32;;;;;;;;;;;12.80;99.90;;;;;;5048595;28;19916;-73
2022/10/19 05:41:58;;;;;;;;;;;12.80;99.90;;;;;;5056383;28;19917;-73
2022/10/19 05:44:23;;;;;;;;;;;12.80;99.90;;;;;;5057043;28;19916;-73
2022/10/19 05:46:49;;;;;;;;;;;12.80;99.90;;;;;;5054807;28;19909;-74
2022/10/19 05:49:16;;;;;;;;;;;12.80;99.90;;;;;;5056573;28;19912;-73
2022/10/19 05:51:42;;;;;;;;;;;12.80;99.90;;;;;;5038801;28;19909;-74
2022/10/19 05:54:08;;;;;;;;;;;12.80;99.90;;;;;;5034349;28;19924;-74
2022/10/19 05:56:34;;;;;;;;;;;12.80;99.90;;;;;;5045133;28;19971;-74
2022/10/19 05:59:01;;;;;;;;;;;12.80;99.90;;;;;;5046163;28;19913;-74
2022/10/19 06:01:27;;;;;;;;;;;12.80;99.90;;;;;;5028691;28;19909;-74
2022/10/19 06:03:55;;;;;;;;;;;12.80;99.90;;;;;;5045588;28;19959;-75
2022/10/19 06:06:21;;;;;;;;;;;12.80;99.90;;;;;;5063030;28;19913;-75
2022/10/19 06:08:47;;;;;;;;;;;12.80;99.90;;;;;;5032455;28;19963;-74
2022/10/19 06:11:15;;;;;;;;;;;12.80;99.90;;;;;;5066724;28;19917;-73
2022/10/19 06:13:41;;;;;;;;;;;12.80;99.90;;;;;;5049177;28;19909;-74
2022/10/19 06:16:07;;;;;;;;;;;12.80;99.90;;;;;;5048255;28;19916;-74
2022/10/19 06:18:33;;;;;;;;;;;12.80;99.90;;;;;;5065140;28;19920;-74
2022/10/19 06:21:05;;;;;;;;;;;12.80;99.90;;;;;;5048561;28;19909;-74
2022/10/19 06:23:31;;;;;;;;;;;12.80;99.90;;;;;;5049043;28;19913;-74
2022/10/19 06:25:57;;;;;;;;;;;12.80;99.90;;;;;;5048053;28;19920;-74
2022/10/19 06:28:23;;;;;;;;;;;12.80;99.90;;;;;;5065665;28;19983;-75
2022/10/19 06:30:48;;;;;;;;;;;12.80;99.90;;;;;;5065877;28;19913;-75
2022/10/19 06:33:14;;;;;;;;;;;12.80;99.90;;;;;;5065835;28;20208;-75
2022/10/19 06:35:41;;;;;;;;;;;12.80;99.90;;;;;;5065319;28;19980;-75
2022/10/19 06:38:08;;;;;;;;;;;12.80;99.90;;;;;;5065579;28;19975;-75
2022/10/19 06:40:34;;;;;;;;;;;12.80;99.90;;;;;;5065902;28;19909;-76
2022/10/19 06:43:00;;;;;;;;;;;12.80;99.90;;;;;;5047628;28;19908;-75
2022/10/19 06:45:25;;;;;;;;;;;12.80;99.90;;;;;;5065401;28;20228;-77
2022/10/19 06:47:51;;;;;;;;;;;12.80;99.90;;;;;;5064518;28;20131;-75
2022/10/19 06:50:16;;;;;;;;;;;12.90;99.90;;;;;;5065290;28;19909;-76
2022/10/19 06:52:42;;;;;;;;;;;12.80;99.90;;;;;;5065480;28;19970;-75
2022/10/19 06:55:08;;;;;;;;;;;12.80;99.90;;;;;;5065441;28;20277;-75
2022/10/19 06:57:34;;;;;;;;;;;12.80;99.90;;;;;;5064990;28;19909;-75
2022/10/19 06:59:59;;;;;;;;;;;12.80;99.90;;;;;;5030835;28;20239;-75
2022/10/19 07:02:25;;;;;;;;;;;12.80;99.90;;;;;;5064968;28;19913;-75
2022/10/19 07:04:51;;;;;;;;;;;12.80;99.90;;;;;;5063880;28;19951;-76
2022/10/19 07:07:16;;;;;;;;;;;12.80;99.90;;;;;;5064489;28;19909;-75
2022/10/19 07:09:42;;;;;;;;;;;12.80;99.90;;;;;;5047257;28;19908;-76
2022/10/19 07:12:09;;;;;;;;;;;12.80;99.90;;;;;;5062146;28;19924;-72
2022/10/19 07:14:38;;;;;;;;;;;12.80;99.90;;;;;;5049019;28;19909;-77
2022/10/19 07:17:07;;;;;;;;;;;12.80;99.90;;;;;;5052239;28;19909;-78
2022/10/19 07:19:33;;;;;;;;;;;12.80;99.90;;;;;;5066343;28;20151;-78
2022/10/19 07:21:58;;;;;;;;;;;12.80;99.90;;;;;;5030260;28;19952;-78
2022/10/19 07:24:24;;;;;;;;;;;12.80;99.90;;;;;;5059552;28;19924;-79
2022/10/19 07:26:51;;;;;;;;;;;12.80;99.90;;;;;;5046218;28;20100;-81
2022/10/19 07:29:17;;;;;;;;;;;12.80;99.90;;;;;;5045553;28;19909;-78
2022/10/19 07:31:42;;;;;;;;;;;12.80;99.90;;;;;;5046077;28;19959;-77
2022/10/19 07:34:12;;;;;;;;;;;12.80;99.90;;;;;;5044416;28;19940;-77
2022/10/19 07:36:38;;;;;;;;;;;12.80;99.90;;;;;;5076425;28;19917;-79
2022/10/19 07:39:05;;;;;;;;;;;12.80;99.90;;;;;;5063147;28;19913;-78
2022/10/19 07:41:31;;;;;;;;;;;12.80;99.90;;;;;;5064612;28;19927;-81
2022/10/19 07:43:56;;;;;;;;;;;12.80;99.90;;;;;;5047655;28;20150;-77
2022/10/19 07:46:24;;;;;;;;;;;12.80;99.90;;;;;;5062552;28;19912;-76
2022/10/19 07:48:50;;;;;;;;;;;12.80;99.90;;;;;;5079177;28;19908;-76
2022/10/19 07:51:16;;;;;;;;;;;12.80;99.90;;;;;;5063607;28;19931;-79
2022/10/19 07:53:42;;;;;;;;;;;12.80;99.90;;;;;;5046593;28;19908;-79
2022/10/19 07:56:19;;;;;;;;;;;12.80;99.90;;;;;;5062889;28;19990;-77
2022/10/19 07:58:44;;;;;;;;;;;12.70;99.90;;;;;;5043838;28;19945;-78
2022/10/19 08:01:21;;;;;;;;;;;12.70;99.90;;;;;;5042628;28;19959;-74
2022/10/19 08:03:46;;;;;;;;;;;12.70;99.90;;;;;;5042082;28;20112;-74
2022/10/19 08:06:15;;;;;;;;;;;12.70;99.90;;;;;;5040556;28;19913;-74
2022/10/19 08:08:41;;;;;;;;;;;12.80;99.90;;;;;;5024814;28;19909;-74
2022/10/19 08:11:10;;;;;;;;;;;12.80;99.90;;;;;;5042312;28;20168;-74
2022/10/19 08:13:37;;;;;;;;;;;12.80;99.90;;;;;;5041700;28;19968;-74
2022/10/19 08:16:03;;;;;;;;;;;12.80;99.90;;;;;;5025133;28;19939;-75
2022/10/19 08:18:29;;;;;;;;;;;12.90;99.90;;;;;;5058308;28;19917;-73
2022/10/19 08:20:55;;;;;;;;;;;12.90;99.90;;;;;;5043395;28;20144;-72
2022/10/19 08:23:21;;;;;;;;;;;12.90;99.90;;;;;;5043362;28;19909;-72
2022/10/19 08:25:48;;;;;;;;;;;13.00;99.90;;;;;;5055803;28;19944;-72
2022/10/19 08:28:13;;;;;;;;;;;13.00;99.90;;;;;;5062654;28;19924;-72
2022/10/19 08:30:39;;;;;;;;;;;13.00;99.90;;;;;;5045496;28;19916;-72
2022/10/19 08:33:07;;;;;;;;;;;13.00;99.90;;;;;;5045452;28;19909;-72
2022/10/19 08:35:33;;;;;;;;;;;13.00;99.90;;;;;;5062330;28;19930;-72
2022/10/19 08:37:59;;;;;;;;;;;13.00;99.90;;;;;;5062671;28;19942;-72
2022/10/19 08:40:27;;;;;;;;;;;13.00;99.90;;;;;;5061553;28;19984;-72
2022/10/19 08:43:26;;;;;;;;;;;13.00;99.90;;;;;;5045574;28;19916;-71
2022/10/19 08:45:56;;;;;;;;;;;13.10;99.90;;;;;;5047291;28;19913;-72
2022/10/19 08:48:27;;;;;;;;;;;13.20;99.90;;;;;;5045311;28;19908;-71
2022/10/19 08:50:53;;;;;;;;;;;13.20;99.90;;;;;;5061731;28;19917;-71
2022/10/19 08:53:44;;;;;;;;;;;13.20;99.90;;;;;;5062432;28;20231;-72
2022/10/19 08:56:35;;;;;;;;;;;13.20;99.90;;;;;;5062266;28;19912;-72
2022/10/19 08:59:22;;;;;;;;;;;13.20;99.90;;;;;;5044939;28;19909;-72
2022/10/19 09:02:00;;;;;;;;;;;13.30;99.90;;;;;;5047630;28;19916;-72
2022/10/19 09:04:43;;;;;;;;;;;13.30;99.90;;;;;;5061507;28;19913;-71
2022/10/19 09:07:24;;;;;;;;;;;13.40;99.90;;;;;;5038542;28;20208;-72
2022/10/19 09:09:57;;;;;;;;;;;13.40;99.90;;;;;;5042055;28;20216;-72
2022/10/19 09:12:46;;;;;;;;;;;13.40;99.90;;;;;;5041440;28;20132;-71
2022/10/19 09:15:19;;;;;;;;;;;13.40;99.90;;;;;;5041295;28;19947;-72
2022/10/19 09:17:45;;;;;;;;;;;13.40;99.90;;;;;;5039831;28;19909;-72
2022/10/19 09:20:22;;;;;;;;;;;13.40;99.90;;;;;;5041434;28;19909;-72
2022/10/19 09:22:59;;;;;;;;;;;13.40;99.90;;;;;;5042306;28;19917;-71
2022/10/19 09:25:25;;;;;;;;;;;13.40;99.90;;;;;;5050765;28;20272;-72
2022/10/19 09:28:10;;;;;;;;;;;13.30;99.90;;;;;;5044203;28;19908;-72
2022/10/19 09:30:35;;;;;;;;;;;13.40;99.90;;;;;;5045577;28;19930;-72
2022/10/19 09:33:01;;;;;;;;;;;13.40;99.90;;;;;;5028055;28;19913;-72
2022/10/19 09:35:32;;;;;;;;;;;13.50;99.90;;;;;;5058931;28;19916;-72
2022/10/19 09:37:58;;;;;;;;;;;13.50;99.90;;;;;;5040715;28;19959;-72
2022/10/19 09:40:28;;;;;;;;;;;13.60;99.90;;;;;;5024638;28;19941;-72
2022/10/19 09:42:57;;;;;;;;;;;13.60;99.90;;;;;;5040992;28;19909;-72
2022/10/19 09:45:49;;;;;;;;;;;13.60;99.90;;;;;;5041205;28;19968;-72
2022/10/19 09:48:38;;;;;;;;;;;13.70;99.90;;;;;;5024524;28;19940;-71
2022/10/19 09:51:10;;;;;;;;;;;13.70;99.90;;;;;;5008241;28;19932;-72
2022/10/19 09:53:36;;;;;;;;;;;13.80;99.90;;;;;;5041161;28;19916;-72
2022/10/19 09:56:06;;;;;;;;;;;13.90;99.90;;;;;;5038521;28;19975;-72
2022/10/19 09:58:32;;;;;;;;;;;13.90;99.90;;;;;;5044553;28;19908;-72
2022/10/19 10:00:57;;;;;;;;;;;14.00;99.90;;;;;;5062074;28;19979;-72
2022/10/19 10:03:23;;;;;;;;;;;14.10;99.90;;;;;;5061971;28;19909;-72
2022/10/19 10:05:49;;;;;;;;;;;14.10;99.90;;;;;;5061411;28;19919;-72
2022/10/19 10:08:17;;;;;;;;;;;14.10;99.90;;;;;;5043693;28;20112;-71
2022/10/19 10:10:58;;;;;;;;;;;14.20;99.90;;;;;;5027480;28;19917;-71
2022/10/19 10:13:24;;;;;;;;;;;14.30;99.90;;;;;;5028735;28;19909;-72
2022/10/19 10:15:55;;;;;;;;;;;14.30;99.90;;;;;;5044031;28;19958;-72
2022/10/19 10:18:20;;;;;;;;;;;14.50;99.90;;;;;;5028144;28;19909;-72
2022/10/19 10:21:22;;;;;;;;;;;14.70;99.90;;;;;;5043635;28;20022;-72
2022/10/19 10:24:10;;;;;;;;;;;14.90;99.90;;;;;;5053683;28;19917;-72
2022/10/19 10:26:47;;;;;;;;;;;15.00;99.90;;;;;;5064512;28;20013;-72
2022/10/19 10:29:25;;;;;;;;;;;15.10;99.90;;;;;;5055798;28;19916;-71
2022/10/19 10:31:55;;;;;;;;;;;15.20;99.90;;;;;;5073324;28;19917;-72
2022/10/19 10:34:37;;;;;;;;;;;15.30;99.90;;;;;;5055166;28;19931;-72
2022/10/19 10:37:03;;;;;;;;;;;15.40;99.90;;;;;;5052442;28;19912;-71
2022/10/19 10:39:29;;;;;;;;;;;15.40;99.90;;;;;;5054651;28;19916;-72
2022/10/19 10:41:55;;;;;;;;;;;15.40;99.90;;;;;;5051044;28;19909;-72
2022/10/19 10:44:25;;;;;;;;;;;15.30;99.90;;;;;;5050270;28;19947;-72
2022/10/19 10:46:54;;;;;;;;;;;15.30;99.90;;;;;;5048165;28;20199;-72
2022/10/19 10:49:23;;;;;;;;;;;15.30;99.90;;;;;;5048715;28;19972;-72
2022/10/19 10:52:12;;;;;;;;;;;15.30;99.90;;;;;;5065443;28;20211;-72
2022/10/19 10:54:38;;;;;;;;;;;15.30;99.90;;;;;;5039551;28;19932;-72
2022/10/19 10:57:08;;;;;;;;;;;15.30;99.90;;;;;;5047187;28;19915;-72
2022/10/19 10:59:54;;;;;;;;;;;15.30;99.90;;;;;;5065239;28;19951;-72
2022/10/19 11:02:29;;;;;;;;;;;15.30;99.90;;;;;;5064875;28;19916;-72
2022/10/19 11:04:58;;;;;;;;;;;15.30;99.90;;;;;;5064755;28;20135;-72
2022/10/19 11:07:25;;;;;;;;;;;15.30;99.90;;;;;;5046944;28;19947;-71
2022/10/19 11:10:08;;;;;;;;;;;15.30;99.90;;;;;;5046778;28;19913;-72
2022/10/19 11:12:39;;;;;;;;;;;15.40;99.90;;;;;;5063613;28;19916;-72
2022/10/19 11:15:20;;;;;;;;;;;15.50;99.90;;;;;;5047134;28;19944;-72
2022/10/19 11:18:20;;;;;;;;;;;15.50;99.90;;;;;;5064277;28;20218;-72
2022/10/19 11:20:51;;;;;;;;;;;15.40;99.90;;;;;;5047392;28;19951;-72
2022/10/19 11:23:30;;;;;;;;;;;15.50;99.90;;;;;;5047498;28;19916;-72
2022/10/19 11:26:15;;;;;;;;;;;15.60;99.90;;;;;;5048085;28;19912;-72
2022/10/19 11:28:50;;;;;;;;;;;15.70;99.90;;;;;;5064320;28;19909;-72
2022/10/19 11:31:29;;;;;;;;;;;15.80;99.90;;;;;;5030405;28;20138;-72
2022/10/19 11:34:32;;;;;;;;;;;15.80;99.90;;;;;;5047021;28;19985;-72
2022/10/19 11:37:16;;;;;;;;;;;15.90;99.90;;;;;;5063882;28;19917;-72
2022/10/19 11:39:45;;;;;;;;;;;16.00;99.90;;;;;;5043866;28;19912;-72
2022/10/19 11:42:31;;;;;;;;;;;16.10;99.90;;;;;;5058027;28;20206;-72
2022/10/19 11:45:15;;;;;;;;;;;16.20;99.90;;;;;;5063742;28;19992;-72
2022/10/19 11:48:02;;;;;;;;;;;16.30;99.90;;;;;;5062746;28;19908;-72
2022/10/19 11:50:45;;;;;;;;;;;16.40;99.90;;;;;;5064112;28;20143;-72
2022/10/19 11:53:14;;;;;;;;;;;16.40;99.90;;;;;;5046157;28;20087;-72
2022/10/19 11:55:56;;;;;;;;;;;16.40;99.90;;;;;;5062617;28;19908;-72
2022/10/19 11:58:31;;;;;;;;;;;16.50;99.90;;;;;;5045878;28;19936;-72
2022/10/19 12:01:18;;;;;;;;;;;16.40;99.90;;;;;;5046712;28;19909;-71
2022/10/19 12:04:04;;;;;;;;;;;16.30;99.90;;;;;;5046195;28;20144;-71
2022/10/19 12:06:59;;;;;;;;;;;16.30;99.90;;;;;;5052574;28;19912;-72
2022/10/19 12:09:33;;;;;;;;;;;16.20;99.90;;;;;;5022853;28;19909;-71
2022/10/19 12:12:14;;;;;;;;;;;16.20;99.90;;;;;;5063331;28;19908;-71
2022/10/19 12:14:40;;;;;;;;;;;16.20;99.90;;;;;;5063531;28;19976;-71
2022/10/19 12:17:13;;;;;;;;;;;16.20;99.90;;;;;;5045350;28;19958;-72
2022/10/19 12:19:41;;;;;;;;;;;16.20;99.90;;;;;;5029757;28;19916;-70
2022/10/19 12:22:12;;;;;;;;;;;16.30;99.90;;;;;;5045999;28;19908;-71
2022/10/19 12:24:38;;;;;;;;;;;16.30;99.90;;;;;;5029575;28;20219;-72
2022/10/19 12:27:03;;;;;;;;;;;16.30;99.90;;;;;;5062985;28;19991;-72
2022/10/19 12:29:34;;;;;;;;;;;16.30;99.90;;;;;;5063160;28;20253;-72
2022/10/19 12:32:00;;;;;;;;;;;16.20;99.90;;;;;;5045772;28;19909;-72
2022/10/19 12:34:35;;;;;;;;;;;16.30;99.90;;;;;;5045484;28;19909;-72
2022/10/19 12:37:24;;;;;;;;;;;16.30;99.90;;;;;;5062578;28;19931;-72
2022/10/19 12:40:26;;;;;;;;;;;16.30;99.90;;;;;;5044864;28;19957;-72
2022/10/19 12:43:09;;;;;;;;;;;16.40;99.90;;;;;;5058971;28;19909;-72
2022/10/19 12:45:35;;;;;;;;;;;16.50;99.90;;;;;;5028526;28;19958;-72
2022/10/19 12:48:07;;;;;;;;;;;16.70;99.90;;;;;;5044827;28;19909;-72
2022/10/19 12:50:53;;;;;;;;;;;17.20;99.90;;;;;;5062840;28;20337;-72
2022/10/19 12:53:45;;;;;;;;;;;18.60;99.90;;;;;;5062798;28;19916;-73
2022/10/19 12:56:17;;;;;;;;;;;21.10;99.90;;;;;;5045686;28;19959;-73
2022/10/19 12:58:43;;;;;;;;;;;23.50;84.80;;;;;;5045623;28;20227;-73
2022/10/19 13:01:18;;;;;;;;;;;24.10;1.00;;;;;;5062698;28;19976;-72
2022/10/19 13:03:45;;;;;;;;;;;23.90;1.00;;;;;;5046107;28;20200;-72
2022/10/19 13:06:29;;;;;;;;;;;24.60;1.00;;;;;;5044736;28;19987;-73
2022/10/19 13:08:56;;;;;;;;;;;25.50;1.00;;;;;;5046418;28;19909;-73
2022/10/19 13:11:21;;;;;;;;;;;25.50;1.00;;;;;;5044866;28;19908;-73
2022/10/19 13:13:54;;;;;;;;;;;26.30;1.00;;;;;;5044814;28;19955;-73
2022/10/19 13:16:52;;;;;;;;;;;26.80;1.00;;;;;;5062103;28;19909;-73
2022/10/19 13:19:18;;;;;;;;;;;26.40;1.00;;;;;;5048196;28;19917;-73
2022/10/19 13:21:58;;;;;;;;;;;25.90;1.00;;;;;;5062422;28;20222;-72
2022/10/19 13:24:24;;;;;;;;;;;25.10;1.00;;;;;;5044736;28;19961;-71
2022/10/19 13:26:58;;;;;;;;;;;24.00;1.00;;;;;;5061839;28;20276;-72
2022/10/19 13:29:43;;;;;;;;;;;23.00;1.00;;;;;;5062402;28;19909;-72
2022/10/19 13:32:34;;;;;;;;;;;22.20;1.00;;;;;;5044976;28;19975;-73
2022/10/19 13:35:18;;;;;;;;;;;21.50;1.00;;;;;;5062272;28;20093;-72
2022/10/19 13:37:43;;;;;;;;;;;20.90;5.30;;;;;;5061874;28;19913;-72
2022/10/19 13:40:18;;;;;;;;;;;20.40;18.80;;;;;;5061711;28;19984;-72
2022/10/19 13:42:44;;;;;;;;;;;20.00;30.20;;;;;;5044667;28;19908;-72
2022/10/19 13:45:22;;;;;;;;;;;20.10;32.40;;;;;;5044446;28;19913;-72
2022/10/19 13:47:53;;;;;;;;;;;20.30;22.70;;;;;;5044382;28;19921;-72
2022/10/19 13:50:21;;;;;;;;;;;20.10;19.70;;;;;;5061253;28;19936;-72
2022/10/19 13:53:05;;;;;;;;;;;19.80;32.70;;;;;;5044553;28;19917;-70
2022/10/19 13:55:46;;;;;;;;;;;19.60;44.50;;;;;;5055149;28;19913;-72
2022/10/19 13:58:49;;;;;;;;;;;19.90;33.10;;;;;;5028316;28;19949;-72
2022/10/19 14:01:33;;;;;;;;;;;20.60;15.00;;;;;;5046238;28;20250;-72
2022/10/19 14:04:23;;;;;;;;;;;20.60;1.00;;;;;;5045800;28;19944;-72
2022/10/19 14:06:59;;;;;;;;;;;20.20;27.40;;;;;;5045645;28;19944;-72
2022/10/19 14:09:43;;;;;;;;;;;19.70;15.70;;;;;;5046011;28;19909;-72
2022/10/19 14:12:25;;;;;;;;;;;19.30;20.40;;;;;;5045662;28;19909;-71
2022/10/19 14:14:53;;;;;;;;;;;19.10;32.60;;;;;;5028285;28;19989;-72
2022/10/19 14:17:24;;;;;;;;;;;18.90;34.60;;;;;;5027878;28;20219;-72
2022/10/19 14:19:52;;;;;;;;;;;18.80;32.90;;;;;;5044708;28;19910;-72
2022/10/19 14:22:34;;;;;;;;;;;18.70;44.20;;;;;;5028583;28;20131;-73
2022/10/19 14:25:20;;;;;;;;;;;18.60;82.70;;;;;;5034952;28;19950;-73
2022/10/19 14:27:46;;;;;;;;;;;18.50;56.70;;;;;;5065329;28;19947;-72
2022/10/19 14:30:32;;;;;;;;;;;18.40;68.70;;;;;;5044683;28;19917;-73
2022/10/19 14:32:59;;;;;;;;;;;18.30;78.00;;;;;;5063597;28;20219;-76
2022/10/19 14:35:28;;;;;;;;;;;18.20;86.30;;;;;;5064408;28;19909;-76
2022/10/19 14:37:54;;;;;;;;;;;18.10;79.00;;;;;;5063783;28;20208;-75
2022/10/19 14:40:20;;;;;;;;;;;18.00;80.20;;;;;;5047541;28;19950;-75